Time;durP1;ratioP1;P1;durP2;ratioP2;P2;SDS_P1;SDS_P2;PMS_P1;PMS_P2;Temp;Humidity;BMP_temperature;BMP_pressure;BME280_temperature;BME280_humidity;BME280_pressure;Samples;Min_cycle;Max_cycle;Signal;HPM_P1;HPM_P2
2022/12/11 00:02:17;;;;;;;;;19.00;15.75;;;;;4.47;100.00;100995.13;5051828;28;45451;-75
2022/12/11 00:04:42;;;;;;;;;14.50;12.25;;;;;4.44;100.00;100997.66;5037294;28;45395;-74
2022/12/11 00:07:07;;;;;;;;;10.50;9.50;;;;;4.43;100.00;101003.72;5047218;28;47731;-74
2022/12/11 00:09:33;;;;;;;;;12.50;7.75;;;;;4.46;100.00;101009.94;5051208;28;45376;-75
2022/12/11 00:11:58;;;;;;;;;11.75;10.00;;;;;4.47;100.00;101003.88;5044570;28;45423;-75
2022/12/11 00:14:23;;;;;;;;;18.75;15.25;;;;;4.48;100.00;101002.16;5047938;28;45431;-76
2022/12/11 00:16:49;;;;;;;;;15.00;13.50;;;;;4.52;100.00;100993.56;5043032;28;56216;-74
2022/12/11 00:19:15;;;;;;;;;15.75;10.00;;;;;4.57;100.00;100988.53;5043682;28;45246;-75
2022/12/11 00:21:41;;;;;;;;;20.25;11.00;;;;;4.58;100.00;100974.63;5040021;28;45214;-74
2022/12/11 00:24:06;;;;;;;;;12.00;9.50;;;;;4.60;100.00;100973.84;5039729;28;45443;-75
2022/12/11 00:26:32;;;;;;;;;12.75;11.25;;;;;4.67;100.00;100974.97;5057845;28;45989;-74
2022/12/11 00:28:57;;;;;;;;;13.50;12.00;;;;;4.68;100.00;100975.00;5056218;28;48803;-75
2022/12/11 00:31:23;;;;;;;;;15.00;10.75;;;;;4.70;100.00;100977.72;5052755;28;45301;-74
2022/12/11 00:33:49;;;;;;;;;15.50;11.75;;;;;4.72;100.00;100968.19;5054290;28;45513;-75
2022/12/11 00:36:21;;;;;;;;;14.75;11.00;;;;;4.70;100.00;100955.06;5044689;28;46840;-74
2022/12/11 00:38:47;;;;;;;;;11.75;10.25;;;;;4.74;100.00;100966.53;5078888;28;45493;-74
2022/12/11 00:41:13;;;;;;;;;9.00;8.25;;;;;4.75;100.00;100960.47;5061320;28;45257;-75
2022/12/11 00:43:38;;;;;;;;;17.00;10.00;;;;;4.71;100.00;100950.72;5061491;28;45278;-75
2022/12/11 00:46:04;;;;;;;;;9.75;7.75;;;;;4.69;100.00;100961.13;5060295;28;59672;-74
2022/12/11 00:48:29;;;;;;;;;12.00;8.75;;;;;4.70;100.00;100955.06;5078189;28;45466;-75
2022/12/11 00:50:55;;;;;;;;;13.25;10.50;;;;;4.71;100.00;100951.59;5055650;28;45451;-74
2022/12/11 00:53:20;;;;;;;;;14.00;8.00;;;;;4.71;100.00;100958.56;5058308;28;45657;-74
2022/12/11 00:55:45;;;;;;;;;15.00;9.00;;;;;4.68;100.00;100951.47;5059502;28;46907;-74
2022/12/11 00:58:11;;;;;;;;;8.00;8.00;;;;;4.69;100.00;100950.66;5041846;28;45525;-75
2022/12/11 01:00:38;;;;;;;;;12.25;9.00;;;;;4.69;100.00;100950.66;5054969;28;45367;-75
2022/12/11 01:03:04;;;;;;;;;14.00;4.75;;;;;4.67;100.00;100948.81;5058619;28;45594;-74
2022/12/11 01:05:29;;;;;;;;;12.00;7.75;;;;;4.66;100.00;100947.94;5060602;28;46794;-75
2022/12/11 01:07:55;;;;;;;;;9.50;7.50;;;;;4.68;100.00;100940.13;5060240;28;45747;-74
2022/12/11 01:10:23;;;;;;;;;12.25;7.25;;;;;4.65;100.00;100938.31;5057994;28;56081;-74
2022/12/11 01:13:00;;;;;;;;;7.75;7.75;;;;;4.62;100.00;100938.19;5055535;28;46573;-75
2022/12/11 01:15:28;;;;;;;;;19.75;7.00;;;;;4.60;100.00;100939.84;5051458;28;46583;-76
2022/12/11 01:17:54;;;;;;;;;10.00;7.75;;;;;4.58;100.00;100932.78;5059689;28;45390;-75
2022/12/11 01:20:21;;;;;;;;;11.00;7.25;;;;;4.57;100.00;100947.56;5059449;28;47505;-74
2022/12/11 01:22:47;;;;;;;;;9.00;8.25;;;;;4.56;100.00;100931.84;5059884;28;45259;-75
2022/12/11 01:25:12;;;;;;;;;11.00;8.25;;;;;4.54;100.00;100939.63;5060267;28;46868;-75
2022/12/11 01:27:38;;;;;;;;;12.00;8.75;;;;;4.53;100.00;100940.47;5077521;28;45407;-75
2022/12/11 01:30:06;;;;;;;;;10.00;8.75;;;;;4.52;100.00;100937.78;5059273;28;45471;-75
2022/12/11 01:32:31;;;;;;;;;12.50;8.75;;;;;4.47;100.00;100938.53;5057534;28;45609;-75
2022/12/11 01:34:57;;;;;;;;;8.00;4.75;;;;;4.45;100.00;100939.28;5059665;28;46203;-75
2022/12/11 01:37:22;;;;;;;;;7.50;5.00;;;;;4.39;100.00;100944.28;5077170;28;45491;-74
2022/12/11 01:39:47;;;;;;;;;13.00;7.25;;;;;4.34;100.00;100949.34;5059705;28;54135;-74
2022/12/11 01:42:18;;;;;;;;;7.50;5.75;;;;;4.30;100.00;100946.56;5061096;28;45462;-74
2022/12/11 01:44:43;;;;;;;;;12.25;8.00;;;;;4.30;100.00;100957.00;5058426;28;45773;-76
2022/12/11 01:47:09;;;;;;;;;18.50;9.50;;;;;4.27;100.00;100949.94;5076551;28;45369;-78
2022/12/11 01:49:35;;;;;;;;;7.75;7.00;;;;;4.25;100.00;100943.75;5059445;28;45593;-74
2022/12/11 01:52:06;;;;;;;;;8.00;8.00;;;;;4.29;100.00;100947.38;5060318;28;45394;-75
2022/12/11 01:54:33;;;;;;;;;14.25;11.00;;;;;4.34;100.00;100954.56;5058128;28;45711;-74
2022/12/11 01:57:03;;;;;;;;;11.25;6.75;;;;;4.36;100.00;100955.50;5042534;28;45512;-74
2022/12/11 01:59:30;;;;;;;;;10.25;8.50;;;;;4.38;100.00;100964.31;5041851;28;45641;-74
2022/12/11 02:02:03;;;;;;;;;11.75;7.00;;;;;4.41;100.00;100959.19;5046674;28;45550;-74
2022/12/11 02:04:30;;;;;;;;;15.25;11.50;;;;;4.41;100.00;100956.56;5059877;28;47250;-73
2022/12/11 02:06:55;;;;;;;;;7.75;7.75;;;;;4.42;100.00;100940.09;5058886;28;45610;-75
2022/12/11 02:09:31;;;;;;;;;4.00;4.00;;;;;4.43;100.00;100954.94;5059539;28;47359;-74
2022/12/11 02:12:21;;;;;;;;;12.00;7.75;;;;;4.44;100.00;100942.75;5059896;28;45632;-74
2022/12/11 02:14:59;;;;;;;;;18.50;11.00;;;;;4.43;100.00;100941.84;5078091;28;46017;-76
2022/12/11 02:17:28;;;;;;;;;13.25;10.00;;;;;4.40;100.00;100939.13;5059888;28;45489;-75
2022/12/11 02:20:10;;;;;;;;;17.00;8.75;;;;;4.39;100.00;100937.34;5060116;28;45550;-74
2022/12/11 02:22:57;;;;;;;;;13.00;5.75;;;;;4.39;100.00;100936.44;5059940;28;45519;-76
2022/12/11 02:26:05;;;;;;;;;16.00;8.00;;;;;4.36;100.00;100923.25;5059836;28;46283;-74
2022/12/11 02:28:34;;;;;;;;;10.25;8.00;;;;;4.32;100.00;100937.06;5034968;28;45490;-73
2022/12/11 02:31:04;;;;;;;;;9.50;6.75;;;;;4.34;100.00;100935.38;5074755;28;45407;-74
2022/12/11 02:33:42;;;;;;;;;8.25;7.75;;;;;4.32;100.00;100934.44;5058889;28;45254;-75
2022/12/11 02:36:08;;;;;;;;;11.25;7.00;;;;;4.35;100.00;100939.78;5055147;28;45878;-74
2022/12/11 02:38:36;;;;;;;;;9.00;7.25;;;;;4.34;100.00;100927.53;5074890;28;54624;-77
2022/12/11 02:41:04;;;;;;;;;7.75;5.00;;;;;4.33;100.00;100925.78;5047101;28;45427;-75
2022/12/11 02:43:30;;;;;;;;;7.00;7.00;;;;;4.26;100.00;100918.50;5034585;28;45382;-76
2022/12/11 02:45:57;;;;;;;;;15.25;9.25;;;;;4.24;100.00;100921.06;5055206;28;45701;-74
2022/12/11 02:48:23;;;;;;;;;13.50;10.75;;;;;4.27;100.00;100917.69;5054371;28;59249;-76
2022/12/11 02:50:52;;;;;;;;;11.00;7.00;;;;;4.26;100.00;100916.81;5057685;28;45631;-74
2022/12/11 02:53:20;;;;;;;;;7.75;7.00;;;;;4.27;100.00;100913.38;5041471;28;46955;-75
2022/12/11 02:55:49;;;;;;;;;12.75;9.25;;;;;4.23;100.00;100906.22;5058960;28;45776;-74
2022/12/11 02:58:21;;;;;;;;;8.00;8.00;;;;;4.23;100.00;100918.41;5073939;28;45469;-73
2022/12/11 03:00:47;;;;;;;;;4.00;4.00;;;;;4.20;100.00;100913.94;5059497;28;45476;-74
2022/12/11 03:03:12;;;;;;;;;9.75;8.00;;;;;4.23;100.00;100916.69;5055742;28;45632;-74
2022/12/11 03:05:38;;;;;;;;;7.25;4.75;;;;;4.23;100.00;100915.81;5055288;28;45632;-77
2022/12/11 03:08:04;;;;;;;;;9.25;7.25;;;;;4.21;100.00;100910.53;5042096;28;45319;-75
2022/12/11 03:10:29;;;;;;;;;11.00;7.50;;;;;4.25;100.00;100921.97;5059077;28;45473;-74
2022/12/11 03:12:56;;;;;;;;;8.25;7.25;;;;;4.20;100.00;100912.22;5057941;28;45332;-77
2022/12/11 03:15:29;;;;;;;;;9.50;4.75;;;;;4.22;100.00;100917.53;5042132;28;47858;-75
2022/12/11 03:18:19;;;;;;;;;4.25;4.25;;;;;4.18;100.00;100906.06;5057283;28;45675;-74
2022/12/11 03:21:15;;;;;;;;;10.50;8.75;;;;;4.19;100.00;100902.59;5059090;28;45307;-76
2022/12/11 03:24:00;;;;;;;;;7.00;4.25;;;;;4.19;100.00;100905.22;5063797;28;45422;-75
2022/12/11 03:26:27;;;;;;;;;5.50;5.50;;;;;4.18;100.00;100906.06;5055090;28;46914;-75
2022/12/11 03:29:00;;;;;;;;;5.00;5.00;;;;;4.19;100.00;100902.59;5056919;28;59236;-74
2022/12/11 03:31:42;;;;;;;;;8.50;4.50;;;;;4.23;100.00;100897.50;5058906;28;45496;-74
2022/12/11 03:34:22;;;;;;;;;9.25;6.25;;;;;4.21;100.00;100900.06;5057680;28;45487;-74
2022/12/11 03:36:49;;;;;;;;;10.50;5.00;;;;;4.18;100.00;100895.59;5057222;28;45966;-75
2022/12/11 03:39:19;;;;;;;;;7.75;6.00;;;;;4.18;100.00;100889.50;5056754;28;60301;-75
2022/12/11 03:41:46;;;;;;;;;8.00;6.25;;;;;4.16;100.00;100893.78;5058561;28;45552;-74
2022/12/11 03:44:12;;;;;;;;;8.00;5.00;;;;;4.19;100.00;100906.94;5056534;28;45564;-75
2022/12/11 03:46:38;;;;;;;;;7.25;4.25;;;;;4.15;100.00;100903.31;5058388;28;45775;-74
2022/12/11 03:49:18;;;;;;;;;7.50;5.50;;;;;4.13;100.00;100909.31;5051722;28;45920;-74
2022/12/11 03:51:46;;;;;;;;;11.00;7.00;;;;;4.07;100.00;100894.31;5058818;28;45256;-75
2022/12/11 03:54:12;;;;;;;;;6.00;4.00;;;;;4.04;100.00;100895.91;5056354;28;45687;-74
2022/12/11 03:56:38;;;;;;;;;6.00;5.25;;;;;4.02;100.00;100902.81;5056301;28;46664;-74
2022/12/11 03:59:04;;;;;;;;;11.00;5.00;;;;;3.99;100.00;100908.78;5057879;28;45320;-74
2022/12/11 04:01:29;;;;;;;;;10.00;5.75;;;;;3.99;100.00;100907.91;5054738;28;54588;-74
2022/12/11 04:03:54;;;;;;;;;7.25;5.00;;;;;3.99;100.00;100905.28;5054620;28;51925;-74
2022/12/11 04:06:20;;;;;;;;;11.25;8.75;;;;;3.96;100.00;100890.41;5069725;28;46029;-75
2022/12/11 04:08:45;;;;;;;;;6.50;4.50;;;;;4.00;100.00;100901.88;5076209;28;48133;-74
2022/12/11 04:16:38;;;;;;;;;6.50;5.00;;;;;3.98;100.00;100888.72;5060914;28;45351;-76
2022/12/11 04:24:32;;;;;;;;;8.50;7.75;;;;;4.05;100.00;100887.22;5071564;28;45402;-74
2022/12/11 04:26:58;;;;;;;;;7.75;5.00;;;;;4.02;100.00;100884.53;5055957;28;46641;-74
2022/12/11 04:29:23;;;;;;;;;10.00;4.50;;;;;4.03;100.00;100889.78;5056966;28;45419;-76
2022/12/11 04:31:49;;;;;;;;;7.25;6.00;;;;;4.01;100.00;100882.75;5061304;28;53981;-74
2022/12/11 04:34:15;;;;;;;;;11.75;7.50;;;;;3.97;100.00;100879.13;5044365;28;45506;-75
2022/12/11 04:36:40;;;;;;;;;7.50;4.50;;;;;3.97;100.00;100884.34;5061285;28;45741;-74
2022/12/11 04:39:05;;;;;;;;;8.50;4.75;;;;;3.94;100.00;100868.53;5043491;28;46277;-74
2022/12/11 04:41:31;;;;;;;;;9.75;6.25;;;;;3.93;100.00;100870.25;5060595;28;45387;-76
2022/12/11 04:43:56;;;;;;;;;6.00;4.00;;;;;3.90;100.00;100866.66;5057791;28;54010;-75
2022/12/11 04:46:23;;;;;;;;;6.00;4.00;;;;;3.89;100.00;100860.56;5061035;28;45805;-76
2022/12/11 04:48:48;;;;;;;;;8.75;4.75;;;;;3.88;100.00;100878.75;5058640;28;45210;-74
2022/12/11 04:51:14;;;;;;;;;9.75;5.00;;;;;3.86;100.00;100863.03;5076473;28;45324;-74
2022/12/11 04:53:40;;;;;;;;;10.00;8.00;;;;;3.89;100.00;100863.16;5059493;28;45624;-75
2022/12/11 04:56:11;;;;;;;;;2.00;2.00;;;;;3.90;100.00;100874.50;5060790;28;46019;-75
2022/12/11 04:58:37;;;;;;;;;4.00;4.00;;;;;3.89;100.00;100867.50;5057321;28;45503;-74
2022/12/11 05:01:15;;;;;;;;;1.75;1.50;;;;;3.87;100.00;100869.16;5059932;28;45210;-74
2022/12/11 05:03:41;;;;;;;;;4.75;4.75;;;;;3.88;100.00;100878.75;5059243;28;45340;-75
2022/12/11 05:06:08;;;;;;;;;4.75;4.00;;;;;3.87;100.00;100864.81;5061000;28;45760;-75
2022/12/11 05:08:35;;;;;;;;;4.00;3.00;;;;;3.88;100.00;100865.69;5059977;28;45311;-74
2022/12/11 05:11:02;;;;;;;;;4.00;4.00;;;;;3.88;100.00;100863.06;5079258;28;45245;-74
2022/12/11 05:13:28;;;;;;;;;5.50;3.50;;;;;3.87;100.00;100862.19;5059669;28;45520;-74
2022/12/11 05:15:54;;;;;;;;;4.75;3.50;;;;;3.86;100.00;100860.41;5043805;28;48521;-75
2022/12/11 05:18:20;;;;;;;;;2.00;2.00;;;;;3.82;100.00;100855.00;5059231;28;45303;-74
2022/12/11 05:20:56;;;;;;;;;2.50;2.00;;;;;3.86;100.00;100856.91;5048443;28;45684;-75
2022/12/11 05:23:22;;;;;;;;;5.00;4.75;;;;;3.87;100.00;100851.75;5043283;28;45385;-74
2022/12/11 05:25:55;;;;;;;;;4.00;4.00;;;;;3.88;100.00;100853.53;5079070;28;46264;-74
2022/12/11 05:28:23;;;;;;;;;5.50;5.50;;;;;3.89;100.00;100847.50;5055881;28;45373;-75
2022/12/11 05:30:54;;;;;;;;;4.75;4.00;;;;;3.91;100.00;100848.44;5068636;28;45343;-75
2022/12/11 05:33:19;;;;;;;;;6.00;3.00;;;;;3.91;100.00;100843.19;5059439;28;45477;-74
2022/12/11 05:35:46;;;;;;;;;7.25;3.50;;;;;3.93;100.00;100844.13;5078163;28;45814;-74
2022/12/11 05:38:12;;;;;;;;;12.00;4.00;;;;;3.94;100.00;100843.34;5066740;28;45290;-75
2022/12/11 05:40:37;;;;;;;;;3.50;3.50;;;;;3.94;100.00;100848.56;5078070;28;54660;-74
2022/12/11 05:43:02;;;;;;;;;3.00;3.00;;;;;3.97;100.00;100846.88;5077364;28;49606;-74
2022/12/11 05:45:28;;;;;;;;;7.00;5.00;;;;;3.98;100.00;100841.69;5074149;28;61746;-74
2022/12/11 05:47:53;;;;;;;;;5.00;5.00;;;;;3.98;100.00;100844.31;5076999;28;61616;-75
2022/12/11 05:50:18;;;;;;;;;4.25;3.00;;;;;3.96;100.00;100848.59;5059148;28;45462;-74
2022/12/11 05:52:44;;;;;;;;;4.75;3.50;;;;;3.95;100.00;100839.00;5058996;28;52079;-74
2022/12/11 05:55:09;;;;;;;;;9.25;5.00;;;;;3.92;100.00;100833.63;5042495;28;46364;-74
2022/12/11 05:57:34;;;;;;;;;5.00;4.00;;;;;3.93;100.00;100833.69;5056218;28;62002;-74
2022/12/11 06:00:00;;;;;;;;;12.50;5.50;;;;;3.93;100.00;100840.63;5057699;28;52563;-75
2022/12/11 06:02:25;;;;;;;;;10.50;7.00;;;;;3.93;100.00;100843.25;5058471;28;50120;-76
2022/12/11 06:04:51;;;;;;;;;8.00;5.00;;;;;3.92;100.00;100842.38;5077694;28;52905;-76
2022/12/11 06:07:16;;;;;;;;;4.75;4.25;;;;;3.97;100.00;100836.44;5060133;28;45379;-74
2022/12/11 06:09:41;;;;;;;;;7.50;4.75;;;;;3.97;100.00;100837.31;5078418;28;45337;-74
2022/12/11 06:12:07;;;;;;;;;9.25;7.00;;;;;3.93;100.00;100833.69;5059707;28;46174;-74
2022/12/11 06:14:32;;;;;;;;;7.00;4.50;;;;;3.91;100.00;100830.13;5078098;28;45963;-75
2022/12/11 06:16:57;;;;;;;;;7.25;5.00;;;;;3.91;100.00;100827.53;5059867;28;45307;-75
2022/12/11 06:19:23;;;;;;;;;8.50;7.00;;;;;3.94;100.00;100832.88;5042546;28;52565;-76
2022/12/11 06:21:48;;;;;;;;;9.50;5.50;;;;;3.92;100.00;100828.41;5056413;28;54948;-74
2022/12/11 06:24:14;;;;;;;;;10.00;6.25;;;;;3.94;100.00;100824.13;5075611;28;45816;-75
2022/12/11 06:26:39;;;;;;;;;6.50;4.75;;;;;3.94;100.00;100826.75;5077630;28;46157;-73
2022/12/11 06:29:05;;;;;;;;;7.00;6.00;;;;;3.98;100.00;100831.25;5077385;28;52080;-76
2022/12/11 06:31:30;;;;;;;;;11.00;7.00;;;;;3.94;100.00;100816.28;5059168;28;45272;-74
2022/12/11 06:33:55;;;;;;;;;5.75;5.75;;;;;3.99;100.00;100822.56;5058293;28;45344;-73
2022/12/11 06:36:23;;;;;;;;;5.25;4.50;;;;;3.99;100.00;100825.19;5041351;28;61071;-74
2022/12/11 06:38:49;;;;;;;;;4.33;4.33;;;;;3.98;100.00;100826.03;5076432;28;45404;-75
2022/12/11 06:41:15;;;;;;;;;13.00;7.75;;;;;3.94;100.00;100818.91;5076732;28;45391;-74
2022/12/11 06:43:41;;;;;;;;;8.25;6.75;;;;;3.90;100.00;100810.09;5076304;28;45493;-74
2022/12/11 06:46:12;;;;;;;;;6.50;3.50;;;;;3.88;100.00;100814.34;5057792;28;45751;-74
2022/12/11 06:48:38;;;;;;;;;6.50;4.50;;;;;3.86;100.00;100804.69;5059462;28;45468;-77
2022/12/11 06:51:08;;;;;;;;;8.25;7.00;;;;;3.86;100.00;100815.13;5057125;28;45583;-74
2022/12/11 06:53:34;;;;;;;;;13.50;7.00;;;;;3.83;100.00;100808.06;5041317;28;47751;-76
2022/12/11 06:56:05;;;;;;;;;7.00;7.00;;;;;3.82;100.00;100810.63;5057956;28;45410;-75
2022/12/11 06:58:32;;;;;;;;;5.00;4.00;;;;;3.76;100.00;100800.84;5059661;28;45560;-75
2022/12/11 07:00:57;;;;;;;;;8.50;5.50;;;;;3.75;100.00;100800.78;5058748;28;45582;-77
2022/12/11 07:03:23;;;;;;;;;8.25;7.25;;;;;3.77;100.00;100814.78;5048352;28;45842;-74
2022/12/11 07:05:48;;;;;;;;;5.50;4.00;;;;;3.75;100.00;100811.22;5076110;28;45344;-76
2022/12/11 07:08:14;;;;;;;;;4.75;4.75;;;;;3.77;100.00;100815.66;5057572;28;55861;-75
2022/12/11 07:10:40;;;;;;;;;10.50;7.50;;;;;3.80;100.00;100812.28;5059000;28;45579;-75
2022/12/11 07:13:05;;;;;;;;;7.00;5.00;;;;;3.81;100.00;100821.91;5057863;28;48812;-74
2022/12/11 07:15:31;;;;;;;;;11.50;7.00;;;;;3.80;100.00;100818.41;5075332;28;53413;-76
2022/12/11 07:17:56;;;;;;;;;8.00;8.00;;;;;3.81;100.00;100822.78;5076788;28;55114;-74
2022/12/11 07:20:21;;;;;;;;;10.75;8.75;;;;;3.80;100.00;100818.41;5063733;28;50587;-73
2022/12/11 07:22:47;;;;;;;;;10.00;9.00;;;;;3.84;100.00;100829.88;5046125;28;58371;-74
2022/12/11 07:25:13;;;;;;;;;12.50;10.50;;;;;3.81;100.00;100819.28;5043091;28;45668;-72
2022/12/11 07:27:38;;;;;;;;;12.00;7.25;;;;;3.82;100.00;100814.13;5058850;28;45946;-73
2022/12/11 07:30:04;;;;;;;;;16.50;11.00;;;;;3.79;100.00;100832.28;5052006;28;45474;-73
2022/12/11 07:32:29;;;;;;;;;8.75;8.75;;;;;3.83;100.00;100838.50;5055302;28;46671;-74
2022/12/11 07:34:55;;;;;;;;;10.75;7.50;;;;;3.83;100.00;100833.28;5073371;28;59351;-75
2022/12/11 07:37:20;;;;;;;;;10.25;10.00;;;;;3.81;100.00;100835.84;5063692;28;51530;-74
2022/12/11 07:39:47;;;;;;;;;10.25;9.75;;;;;3.82;100.00;100828.91;5075877;28;48583;-74
2022/12/11 07:42:13;;;;;;;;;8.00;8.00;;;;;3.81;100.00;100820.19;5053453;28;45706;-75
2022/12/11 07:44:38;;;;;;;;;14.25;9.00;;;;;3.84;100.00;100829.88;5070074;28;57562;-73
2022/12/11 07:47:03;;;;;;;;;12.25;9.50;;;;;3.82;100.00;100823.69;5044570;28;45478;-73
2022/12/11 07:49:29;;;;;;;;;14.75;10.00;;;;;3.82;100.00;100834.13;5068400;28;50312;-74
2022/12/11 07:51:54;;;;;;;;;11.75;8.50;;;;;3.81;100.00;100843.69;5072180;28;46659;-73
2022/12/11 07:54:19;;;;;;;;;19.25;8.00;;;;;3.82;100.00;100840.22;5068409;28;56860;-72
2022/12/11 07:56:46;;;;;;;;;19.50;8.25;;;;;3.82;100.00;100835.00;5062259;28;45403;-74
2022/12/11 07:59:11;;;;;;;;;18.75;11.00;;;;;3.82;100.00;100835.00;5044724;28;45393;-74
2022/12/11 08:01:37;;;;;;;;;15.00;11.50;;;;;3.80;100.00;100838.41;5043423;28;46406;-73
2022/12/11 08:04:05;;;;;;;;;23.25;12.00;;;;;3.78;100.00;100832.22;5042316;28;45331;-73
2022/12/11 08:06:33;;;;;;;;;12.00;11.25;;;;;3.75;100.00;100834.72;5064609;28;45496;-76
2022/12/11 08:08:59;;;;;;;;;19.25;12.00;;;;;3.80;100.00;100843.63;5062020;28;45365;-72
2022/12/11 08:11:25;;;;;;;;;14.75;11.50;;;;;3.78;100.00;100832.22;5061281;28;45808;-73
2022/12/11 08:13:51;;;;;;;;;22.75;14.00;;;;;3.82;100.00;100834.13;5077472;28;45817;-73
2022/12/11 08:16:16;;;;;;;;;18.25;14.00;;;;;3.78;100.00;100837.44;5037285;28;45482;-73
2022/12/11 08:18:43;;;;;;;;;13.00;10.50;;;;;3.78;100.00;100834.81;5064348;28;45549;-73
2022/12/11 08:21:20;;;;;;;;;22.75;15.00;;;;;3.81;100.00;100843.69;5052064;28;46868;-72
2022/12/11 08:23:46;;;;;;;;;18.00;15.00;;;;;3.83;100.00;100843.72;5057836;28;45271;-72
2022/12/11 08:26:22;;;;;;;;;17.50;14.25;;;;;3.81;100.00;100822.78;5055088;28;45312;-72
2022/12/11 08:28:47;;;;;;;;;21.00;17.00;;;;;3.85;100.00;100844.69;5048738;28;45582;-73
2022/12/11 08:31:14;;;;;;;;;22.75;15.50;;;;;3.88;100.00;100848.28;5070543;28;46579;-74
2022/12/11 08:33:40;;;;;;;;;20.75;13.25;;;;;3.90;100.00;100843.16;5056273;28;45535;-73
2022/12/11 08:36:07;;;;;;;;;20.00;13.00;;;;;3.91;100.00;100850.16;5053485;28;45615;-72
2022/12/11 08:38:33;;;;;;;;;17.75;12.50;;;;;3.93;100.00;100836.31;5057395;28;45765;-71
2022/12/11 08:41:10;;;;;;;;;16.75;14.00;;;;;3.93;100.00;100831.06;5070802;28;46647;-81
2022/12/11 08:43:36;;;;;;;;;24.25;16.75;;;;;3.98;100.00;100832.97;5051925;28;45544;-78
2022/12/11 08:46:01;;;;;;;;;15.50;14.75;;;;;4.00;100.00;100832.22;5058209;28;45491;-74
2022/12/11 08:48:26;;;;;;;;;25.25;13.50;;;;;4.03;100.00;100827.09;5067157;28;51790;-74
2022/12/11 08:50:52;;;;;;;;;21.75;17.75;;;;;4.05;100.00;100833.28;5053237;28;57925;-76
2022/12/11 08:53:17;;;;;;;;;14.25;13.50;;;;;4.04;100.00;100836.69;5040125;28;60356;-77
2022/12/11 08:55:42;;;;;;;;;30.50;17.50;;;;;4.03;100.00;100836.66;5034224;28;47208;-76
2022/12/11 08:58:08;;;;;;;;;21.00;11.50;;;;;4.05;100.00;100841.13;5064592;28;47645;-76
2022/12/11 09:00:33;;;;;;;;;13.25;12.50;;;;;4.04;100.00;100839.31;5061712;28;46764;-74
2022/12/11 09:02:58;;;;;;;;;24.25;15.00;;;;;4.05;100.00;100824.53;5064666;28;55145;-75
2022/12/11 09:05:24;;;;;;;;;18.50;12.25;;;;;4.04;100.00;100828.88;5060723;28;45360;-76
2022/12/11 09:07:49;;;;;;;;;25.75;17.50;;;;;4.05;100.00;100833.28;5046804;28;45657;-76
2022/12/11 09:10:15;;;;;;;;;20.00;16.00;;;;;4.05;100.00;100820.22;5049318;28;46818;-76
2022/12/11 09:12:40;;;;;;;;;20.50;16.25;;;;;4.07;100.00;100829.00;5059837;28;51367;-75
2022/12/11 09:15:06;;;;;;;;;24.50;19.50;;;;;4.10;100.00;100826.50;5078179;28;45461;-76
2022/12/11 09:17:33;;;;;;;;;32.50;23.25;;;;;4.12;100.00;100826.56;5054913;28;45472;-74
2022/12/11 09:19:58;;;;;;;;;15.75;15.50;;;;;4.12;100.00;100829.16;5051270;28;46027;-74
2022/12/11 09:22:24;;;;;;;;;19.25;14.50;;;;;4.17;100.00;100833.72;5060489;28;57149;-74
2022/12/11 09:24:49;;;;;;;;;21.00;17.25;;;;;4.22;100.00;100833.00;5063282;28;45350;-75
2022/12/11 09:27:15;;;;;;;;;21.00;11.00;;;;;4.25;100.00;100836.59;5060317;28;46065;-75
2022/12/11 09:29:40;;;;;;;;;18.00;14.25;;;;;4.24;100.00;100827.00;5077857;28;46497;-74
2022/12/11 09:32:05;;;;;;;;;28.25;20.25;;;;;4.28;100.00;100833.22;5078489;28;45461;-75
2022/12/11 09:34:31;;;;;;;;;20.00;17.75;;;;;4.31;100.00;100843.78;5043137;28;45615;-75
2022/12/11 09:36:56;;;;;;;;;32.50;21.25;;;;;4.29;100.00;100838.50;5209317;22;46424;-74
2022/12/11 09:39:22;;;;;;;;;27.75;21.25;;;;;4.32;100.00;100840.34;5098259;27;45769;-74
2022/12/11 09:42:07;;;;;;;;;26.00;17.75;;;;;4.34;100.00;100849.13;5080320;27;45404;-75
2022/12/11 09:44:54;;;;;;;;;24.50;20.25;;;;;4.33;100.00;100845.63;5078717;27;45473;-75
2022/12/11 09:47:22;;;;;;;;;23.25;17.25;;;;;4.36;100.00;100840.50;5080532;27;45458;-75
2022/12/11 09:49:52;;;;;;;;;20.50;16.25;;;;;4.38;100.00;100846.69;5070706;27;46833;-75
2022/12/11 09:52:22;;;;;;;;;22.25;14.00;;;;;4.35;100.00;100846.56;5080571;27;46354;-75
2022/12/11 09:54:51;;;;;;;;;23.25;16.75;;;;;4.35;100.00;100845.69;5080703;27;45350;-75
2022/12/11 09:57:30;;;;;;;;;25.25;18.75;;;;;4.36;100.00;100855.28;5075025;27;45583;-75
2022/12/11 10:00:14;;;;;;;;;13.25;13.25;;;;;4.40;100.00;100862.41;5098341;27;46498;-75
2022/12/11 10:03:05;;;;;;;;;22.00;16.25;;;;;4.42;100.00;100852.88;5098121;27;45283;-72
2022/12/11 10:05:52;;;;;;;;;9.75;8.25;;;;;4.45;100.00;100863.47;5063104;27;45415;-74
2022/12/11 10:08:47;;;;;;;;;20.50;17.50;;;;;4.42;100.00;100860.72;5083009;27;45370;-71
2022/12/11 10:11:47;;;;;;;;;17.50;17.00;;;;;4.14;100.00;100861.44;5082147;27;46980;-73
2022/12/11 10:14:16;;;;;;;;;18.00;17.50;;;;;3.87;100.00;100861.31;5091559;27;45592;-72
2022/12/11 10:16:51;;;;;;;;;16.50;15.50;;;;;3.84;100.00;100859.47;5078239;27;45463;-74
2022/12/11 10:19:26;;;;;;;;;20.00;12.50;;;;;3.87;100.00;100866.53;5078443;27;45439;-75
2022/12/11 10:21:52;;;;;;;;;25.25;14.50;;;;;3.98;100.00;100856.50;5090766;27;45712;-74
2022/12/11 10:24:23;;;;;;;;;12.00;11.50;;;;;4.09;100.00;100850.81;5077233;27;45524;-75
2022/12/11 10:26:54;;;;;;;;;16.50;14.75;;;;;4.17;100.00;100838.06;5079011;27;45730;-73
2022/12/11 10:29:20;;;;;;;;;21.25;12.00;;;;;4.22;100.00;100833.00;5086775;27;45484;-73
2022/12/11 10:31:53;;;;;;;;;19.25;17.75;;;;;4.35;100.00;100837.84;5072644;27;53267;-73
2022/12/11 10:34:39;;;;;;;;;24.00;17.25;;;;;4.46;100.00;100828.66;5074722;28;45520;-72
2022/12/11 10:37:04;;;;;;;;;15.00;12.50;;;;;4.52;100.00;100825.34;5081947;27;45482;-72
2022/12/11 10:39:30;;;;;;;;;19.25;11.75;;;;;4.49;100.00;100823.53;5076010;27;45606;-73
2022/12/11 10:41:56;;;;;;;;;14.75;12.00;;;;;4.50;100.00;100816.59;5085033;27;59579;-73
2022/12/11 10:44:29;;;;;;;;;26.00;18.75;;;;;4.57;100.00;100818.56;5066720;27;45393;-74
2022/12/11 10:47:12;;;;;;;;;20.00;15.50;;;;;4.60;100.00;100816.06;5095362;27;45576;-73
2022/12/11 10:49:42;;;;;;;;;15.00;12.75;;;;;4.61;100.00;100810.88;5089213;27;45508;-73
2022/12/11 10:52:34;;;;;;;;;15.00;11.50;;;;;4.55;100.00;100818.53;5093534;27;46611;-74
2022/12/11 10:55:21;;;;;;;;;15.25;13.00;;;;;4.52;100.00;100813.16;5081376;27;46081;-74
2022/12/11 10:57:55;;;;;;;;;23.00;12.50;;;;;4.56;100.00;100803.72;5086844;27;45536;-74
2022/12/11 11:00:39;;;;;;;;;18.50;12.75;;;;;4.60;100.00;100808.22;5077126;27;45529;-74
2022/12/11 11:03:26;;;;;;;;;12.50;11.75;;;;;4.69;100.00;100813.78;5078003;27;46542;-74
2022/12/11 11:06:24;;;;;;;;;23.50;17.50;;;;;4.83;100.00;100804.66;5094029;27;45384;-73
2022/12/11 11:08:55;;;;;;;;;19.25;17.00;;;;;4.84;100.00;100798.56;5056126;27;45431;-73
2022/12/11 11:11:24;;;;;;;;;26.00;12.00;;;;;4.89;100.00;100793.50;5083379;27;45359;-73
2022/12/11 11:13:50;;;;;;;;;28.25;16.25;;;;;4.82;100.00;100783.69;5095488;27;46675;-73
2022/12/11 11:16:18;;;;;;;;;13.50;11.75;;;;;4.83;100.00;100786.34;5075537;27;45547;-73
2022/12/11 11:18:51;;;;;;;;;15.75;12.00;;;;;4.84;100.00;100788.13;5091883;27;45335;-73
2022/12/11 11:21:19;;;;;;;;;13.75;11.00;;;;;4.86;100.00;100790.81;5078707;27;45371;-73
2022/12/11 11:23:44;;;;;;;;;18.50;13.00;;;;;4.83;100.00;100788.06;5077583;27;45806;-73
2022/12/11 11:26:10;;;;;;;;;19.00;12.00;;;;;4.80;100.00;100786.25;5087293;27;58299;-73
2022/12/11 11:28:46;;;;;;;;;12.25;11.50;;;;;4.81;100.00;100784.53;5061943;27;45440;-73
2022/12/11 11:31:13;;;;;;;;;19.50;12.50;;;;;4.77;100.00;100788.75;5095211;27;45554;-74
2022/12/11 11:33:51;;;;;;;;;24.75;18.25;;;;;4.76;100.00;100794.84;5094468;27;46466;-73
2022/12/11 11:36:23;;;;;;;;;9.00;8.75;;;;;4.76;100.00;100783.47;5088192;27;45333;-73